River Corners, Ohio
Current Conditions -  °F | °C
As of 5:03 AM on Tuesday 21 Oct 2014 (Local Time) from KLPR Reporting Station
Light Rain Light Rain  
Wind Chill: 51°   Ceiling: 2300
Heat Index: 51°   Visibility: 6mi
Dew Point: 49°   Wind: 10mph
Humidity: 92%   Direction: 340°NNW
Pressure: 29.87"   Gusts: NA
Location:  41.1001°N, 82.0965°W
Report Text: KLPR 210903Z AUTO 34009KT 6SM -RA BR FEW009 BKN023 OVC029 11/09 A2987 RMK AO2 RAB0855 P0001 T01060094 TSNO
Loading
Personal Weather Stations






























Interactive Weather Map
Tropical Storm Tracking
New forecast layout! Learn more

10-Day Weather Forecast

Advertisements
Track Severe Weather on mobile